Time;durP1;ratioP1;P1;durP2;ratioP2;P2;SDS_P1;SDS_P2;PMS_P1;PMS_P2;Temp;Humidity;BMP_temperature;BMP_pressure;BME280_temperature;BME280_humidity;BME280_pressure;Samples;Min_cycle;Max_cycle;Signal;HPM_P1;HPM_P2
2023/07/11 00:01:41;;;;;;;6.10;1.80;;;;;;;-143.49;100.00;65027.28;5094965;28;20043;-70
2023/07/11 00:04:06;;;;;;;5.25;1.77;;;;;;;-143.49;100.00;65027.28;5076861;28;20391;-71
2023/07/11 00:06:32;;;;;;;4.38;1.77;;;;;;;-143.49;100.00;65027.28;5094827;28;20463;-70
2023/07/11 00:08:57;;;;;;;4.43;1.77;;;;;;;-143.49;100.00;65027.28;5094741;28;20442;-71
2023/07/11 00:11:23;;;;;;;4.60;1.85;;;;;;;-143.49;100.00;65027.28;5076666;28;20016;-71
2023/07/11 00:13:49;;;;;;;6.47;1.67;;;;;;;-143.49;100.00;65027.28;5094728;28;20035;-70
2023/07/11 00:16:16;;;;;;;10.00;1.90;;;;;;;-143.49;100.00;65027.28;5094764;28;20383;-70
2023/07/11 00:18:42;;;;;;;6.45;1.80;;;;;;;-143.49;100.00;65027.28;5094629;28;20016;-70
2023/07/11 00:21:07;;;;;;;4.57;1.70;;;;;;;-143.49;100.00;65027.28;5094622;28;20410;-71
2023/07/11 00:23:33;;;;;;;7.50;1.83;;;;;;;-143.49;100.00;65027.28;5094610;28;20490;-70
2023/07/11 00:25:58;;;;;;;8.07;1.80;;;;;;;-143.49;100.00;65027.28;5094490;28;20024;-70
2023/07/11 00:28:23;;;;;;;4.63;1.88;;;;;;;-143.49;100.00;65027.28;5076280;28;20027;-70
2023/07/11 00:30:49;;;;;;;4.85;1.80;;;;;;;-143.49;100.00;65027.28;5076128;28;20016;-71
2023/07/11 00:33:15;;;;;;;4.15;1.70;;;;;;;-143.49;100.00;65027.28;5094333;28;20023;-70
2023/07/11 00:35:44;;;;;;;8.40;1.90;;;;;;;-143.49;100.00;65027.28;5094319;28;20023;-71
2023/07/11 00:38:09;;;;;;;7.43;1.95;;;;;;;-143.49;100.00;65027.28;5076100;28;20501;-70
2023/07/11 00:40:47;;;;;;;7.63;1.90;;;;;;;-143.49;100.00;65027.28;5076109;28;20024;-70
2023/07/11 00:43:15;;;;;;;7.50;2.00;;;;;;;-143.49;100.00;65027.28;5094630;28;20032;-71
2023/07/11 00:46:19;;;;;;;4.20;1.85;;;;;;;-143.49;100.00;65027.28;5076272;28;20059;-70
2023/07/11 00:49:03;;;;;;;7.55;2.00;;;;;;;-143.49;100.00;65027.28;5093469;28;20044;-70
2023/07/11 00:51:33;;;;;;;6.55;1.95;;;;;;;-143.49;100.00;65027.28;5075838;28;20491;-69
2023/07/11 00:54:01;;;;;;;6.45;2.15;;;;;;;-143.49;100.00;65027.28;5075813;28;20024;-70
2023/07/11 00:56:30;;;;;;;11.48;1.70;;;;;;;-143.49;100.00;65027.28;5093904;28;20031;-71
2023/07/11 00:58:57;;;;;;;5.30;1.67;;;;;;;-143.49;100.00;65027.28;5093932;28;20023;-69
2023/07/11 01:01:23;;;;;;;6.43;2.08;;;;;;;-143.49;100.00;65027.28;5093921;28;20390;-70
2023/07/11 01:03:51;;;;;;;3.60;1.95;;;;;;;-143.49;100.00;65027.28;5093733;28;20111;-70
2023/07/11 01:06:19;;;;;;;4.50;1.90;;;;;;;-143.49;100.00;65027.28;5074994;28;20070;-70
2023/07/11 01:08:46;;;;;;;7.25;2.08;;;;;;;-143.49;100.00;65027.28;5093489;28;20123;-71
2023/07/11 01:11:12;;;;;;;5.93;1.70;;;;;;;-143.49;100.00;65027.28;5076032;28;20036;-70
2023/07/11 01:13:38;;;;;;;4.57;1.90;;;;;;;-143.49;100.00;65027.28;5076346;28;20031;-72
2023/07/11 01:16:03;;;;;;;4.38;1.75;;;;;;;-143.49;100.00;65027.28;5093714;28;20035;-70
2023/07/11 01:18:29;;;;;;;4.07;1.65;;;;;;;-143.49;100.00;65027.28;5075715;28;20023;-71
2023/07/11 01:20:54;;;;;;;5.45;1.65;;;;;;;-143.49;100.00;65027.28;5075377;28;20472;-70
2023/07/11 01:23:21;;;;;;;3.08;1.80;;;;;;;-143.49;100.00;65027.28;5093717;28;20055;-72
2023/07/11 01:25:47;;;;;;;5.68;1.80;;;;;;;-143.49;100.00;65027.28;5093464;28;20031;-70
2023/07/11 01:28:13;;;;;;;4.65;1.58;;;;;;;-143.49;100.00;65027.28;5093429;28;20024;-70
2023/07/11 01:30:38;;;;;;;5.32;2.00;;;;;;;-143.49;100.00;65027.28;5093493;28;20156;-70
2023/07/11 01:33:04;;;;;;;4.25;1.63;;;;;;;-143.49;100.00;65027.28;5093333;28;20023;-70
2023/07/11 01:35:29;;;;;;;4.70;1.95;;;;;;;-143.49;100.00;65027.28;5093450;28;20024;-70
2023/07/11 01:37:55;;;;;;;6.45;1.85;;;;;;;-143.49;100.00;65027.28;5093386;28;20026;-71
2023/07/11 01:40:21;;;;;;;7.13;1.85;;;;;;;-143.49;100.00;65027.28;5075202;28;20024;-71
2023/07/11 01:42:46;;;;;;;4.35;1.42;;;;;;;-143.49;100.00;65027.28;5093572;28;20043;-71
2023/07/11 01:45:12;;;;;;;5.53;1.73;;;;;;;-143.49;100.00;65027.28;5093297;28;20383;-70
2023/07/11 01:47:37;;;;;;;8.45;1.70;;;;;;;-143.49;100.00;65027.28;5093071;28;20058;-71
2023/07/11 01:50:03;;;;;;;5.20;1.70;;;;;;;-143.49;100.00;65027.28;5093228;28;20024;-70
2023/07/11 01:52:28;;;;;;;5.30;1.67;;;;;;;-143.49;100.00;65027.28;5075062;28;20024;-71
2023/07/11 01:54:53;;;;;;;4.65;1.67;;;;;;;-143.49;100.00;65027.28;5093164;28;20510;-70
2023/07/11 01:57:19;;;;;;;3.75;1.65;;;;;;;-143.49;100.00;65027.28;5093064;28;20112;-71
2023/07/11 01:59:45;;;;;;;7.40;1.75;;;;;;;-143.49;100.00;65027.28;5074822;28;20056;-70
2023/07/11 02:02:11;;;;;;;4.53;1.63;;;;;;;-143.49;100.00;65027.28;5093019;28;20068;-70
2023/07/11 02:04:37;;;;;;;5.47;1.83;;;;;;;-143.49;100.00;65027.28;5074938;28;20530;-71
2023/07/11 02:07:04;;;;;;;7.07;1.90;;;;;;;-143.49;100.00;65027.28;5092978;28;20075;-70
2023/07/11 02:09:30;;;;;;;8.50;2.00;;;;;;;-143.49;100.00;65027.28;5093905;28;20102;-70
2023/07/11 02:11:56;;;;;;;3.58;1.70;;;;;;;-143.49;100.00;65027.28;5092935;28;20028;-70
2023/07/11 02:14:22;;;;;;;4.82;1.90;;;;;;;-143.49;100.00;65027.28;5093047;28;20035;-70
2023/07/11 02:16:49;;;;;;;6.57;1.90;;;;;;;-143.49;100.00;65027.28;5075250;28;20536;-69
2023/07/11 02:19:17;;;;;;;3.78;1.70;;;;;;;-143.49;100.00;65027.28;5097530;28;20055;-71
2023/07/11 02:21:42;;;;;;;5.38;1.67;;;;;;;-143.49;100.00;65027.28;5096920;28;20059;-70
2023/07/11 02:24:10;;;;;;;4.43;1.67;;;;;;;-143.49;100.00;65027.28;5096835;28;20055;-70
2023/07/11 02:26:35;;;;;;;8.20;1.80;;;;;;;-143.49;100.00;65027.28;5097041;28;20107;-70
2023/07/11 02:29:01;;;;;;;5.93;1.90;;;;;;;-143.49;100.00;65027.28;5096632;28;20108;-71
2023/07/11 02:31:26;;;;;;;4.95;1.80;;;;;;;-143.49;100.00;65027.28;5096935;28;20055;-72
2023/07/11 02:33:53;;;;;;;3.85;1.75;;;;;;;-143.49;100.00;65027.28;5078652;28;20570;-71
2023/07/11 02:36:18;;;;;;;6.82;2.20;;;;;;;-143.49;100.00;65027.28;5096557;28;20433;-71
2023/07/11 02:38:44;;;;;;;9.27;2.13;;;;;;;-143.49;100.00;65027.28;5096767;28;20082;-70
2023/07/11 02:41:09;;;;;;;6.25;2.10;;;;;;;-143.49;100.00;65027.28;5096788;28;20024;-70
2023/07/11 02:43:34;;;;;;;4.93;2.10;;;;;;;-143.49;100.00;65027.28;5096364;28;20073;-70
2023/07/11 02:46:00;;;;;;;5.35;2.13;;;;;;;-143.49;100.00;65027.28;5096391;28;20036;-70
2023/07/11 02:48:26;;;;;;;5.57;2.20;;;;;;;-143.49;100.00;65027.28;5078198;28;20437;-71
2023/07/11 02:50:52;;;;;;;6.07;2.40;;;;;;;-143.49;100.00;65027.28;5078606;28;20031;-70
2023/07/11 02:53:18;;;;;;;6.78;2.08;;;;;;;-143.49;100.00;65027.28;5078070;28;20024;-70
2023/07/11 02:55:43;;;;;;;6.85;2.60;;;;;;;-143.49;100.00;65027.28;5096170;28;20032;-70
2023/07/11 02:58:09;;;;;;;5.88;2.15;;;;;;;-143.49;100.00;65027.28;5096231;28;20091;-70
2023/07/11 03:00:35;;;;;;;6.93;2.30;;;;;;;-143.49;100.00;65027.28;5096493;28;20428;-70
2023/07/11 03:03:01;;;;;;;5.22;2.38;;;;;;;-143.49;100.00;65027.28;5096051;28;20028;-70
2023/07/11 03:05:26;;;;;;;5.07;2.60;;;;;;;-143.49;100.00;65027.28;5096152;28;20068;-69
2023/07/11 03:07:52;;;;;;;6.88;2.50;;;;;;;-143.49;100.00;65027.28;5095998;28;20040;-70
2023/07/11 03:10:17;;;;;;;8.05;2.85;;;;;;;-143.49;100.00;65027.28;5077867;28;20030;-70
2023/07/11 03:12:42;;;;;;;5.35;2.38;;;;;;;-143.49;100.00;65027.28;5096389;28;20048;-70
2023/07/11 03:15:08;;;;;;;7.50;2.60;;;;;;;-143.49;100.00;65027.28;5079275;28;20028;-71
2023/07/11 03:17:33;;;;;;;7.22;2.40;;;;;;;-143.49;100.00;65027.28;5095954;28;20050;-70
2023/07/11 03:19:59;;;;;;;6.70;2.60;;;;;;;-143.49;100.00;65027.28;5095975;28;20535;-70
2023/07/11 03:22:24;;;;;;;5.65;2.40;;;;;;;-143.49;100.00;65027.28;5095754;28;20499;-70
2023/07/11 03:24:49;;;;;;;4.45;2.60;;;;;;;-143.49;100.00;65027.28;5095709;28;20430;-70
2023/07/11 03:27:15;;;;;;;6.70;2.65;;;;;;;-143.49;100.00;65027.28;5077973;28;20032;-71
2023/07/11 03:29:41;;;;;;;5.57;2.58;;;;;;;-143.49;100.00;65027.28;5094927;28;20024;-70
2023/07/11 03:32:09;;;;;;;6.80;2.58;;;;;;;-143.49;100.00;65027.28;5077324;28;20055;-71
2023/07/11 03:34:34;;;;;;;5.88;2.60;;;;;;;-143.49;100.00;65027.28;5095649;28;20020;-70
2023/07/11 03:36:59;;;;;;;9.50;2.60;;;;;;;-143.49;100.00;65027.28;5095862;28;20165;-71
2023/07/11 03:39:25;;;;;;;6.75;2.88;;;;;;;-143.49;100.00;65027.28;5095428;28;20140;-70
2023/07/11 03:41:51;;;;;;;6.10;2.80;;;;;;;-143.49;100.00;65027.28;5077627;28;20078;-70
2023/07/11 03:44:16;;;;;;;5.57;2.60;;;;;;;-143.49;100.00;65027.28;5095292;28;20503;-70
2023/07/11 03:46:41;;;;;;;9.70;2.85;;;;;;;-143.49;100.00;65027.28;5096354;28;20030;-71
2023/07/11 03:49:07;;;;;;;5.68;2.67;;;;;;;-143.49;100.00;65027.28;5095150;28;20054;-70
2023/07/11 03:51:32;;;;;;;7.97;2.95;;;;;;;-143.49;100.00;65027.28;5077053;28;20035;-70
2023/07/11 03:53:57;;;;;;;7.75;2.65;;;;;;;-143.49;100.00;65027.28;5095680;28;20030;-69
2023/07/11 03:56:23;;;;;;;6.93;2.92;;;;;;;-143.49;100.00;65027.28;5095134;28;20027;-70
2023/07/11 03:58:49;;;;;;;7.97;2.67;;;;;;;-143.49;100.00;65027.28;5095080;28;20012;-70
2023/07/11 04:01:15;;;;;;;6.93;3.08;;;;;;;-143.49;100.00;65027.28;5076830;28;20429;-70
2023/07/11 04:03:40;;;;;;;10.65;2.88;;;;;;;-143.49;100.00;65027.28;5096287;28;20016;-70
2023/07/11 04:06:07;;;;;;;7.38;2.83;;;;;;;-143.49;100.00;65027.28;5094872;28;20097;-70
2023/07/11 04:08:32;;;;;;;7.85;2.72;;;;;;;-143.49;100.00;65027.28;5094548;28;20158;-70
2023/07/11 04:11:01;;;;;;;6.90;3.28;;;;;;;-143.49;100.00;65027.28;5094777;28;20069;-71
2023/07/11 04:13:27;;;;;;;7.40;2.90;;;;;;;-143.49;100.00;65027.28;5094776;28;20035;-70
2023/07/11 04:15:52;;;;;;;9.55;3.17;;;;;;;-143.49;100.00;65027.28;5077960;28;20025;-71
2023/07/11 04:18:17;;;;;;;7.15;2.83;;;;;;;-143.49;100.00;65027.28;5094745;28;20490;-70
2023/07/11 04:20:45;;;;;;;6.55;3.10;;;;;;;-143.49;100.00;65027.28;5094584;28;20024;-71
2023/07/11 04:23:11;;;;;;;8.30;2.95;;;;;;;-143.49;100.00;65027.28;5076595;28;20028;-70
2023/07/11 04:25:36;;;;;;;7.35;2.70;;;;;;;-143.49;100.00;65027.28;5094450;28;20032;-71
2023/07/11 04:28:02;;;;;;;6.88;2.70;;;;;;;-143.49;100.00;65027.28;5094721;28;20031;-70
2023/07/11 04:30:27;;;;;;;8.10;2.85;;;;;;;-143.49;100.00;65027.28;5094468;28;20020;-70
2023/07/11 04:32:52;;;;;;;7.72;3.10;;;;;;;-143.49;100.00;65027.28;5077363;28;20020;-70
2023/07/11 04:35:18;;;;;;;6.70;2.83;;;;;;;-143.49;100.00;65027.28;5094670;28;20031;-70
2023/07/11 04:37:44;;;;;;;8.50;3.00;;;;;;;-143.49;100.00;65027.28;5094379;28;20024;-71
2023/07/11 04:40:11;;;;;;;11.80;3.08;;;;;;;-143.49;100.00;65027.28;5093775;28;20463;-71
2023/07/11 04:42:36;;;;;;;7.10;2.95;;;;;;;-143.49;100.00;65027.28;5094091;28;20019;-71
2023/07/11 04:45:02;;;;;;;10.13;3.42;;;;;;;-143.49;100.00;65027.28;5094314;28;20027;-70
2023/07/11 04:47:27;;;;;;;10.20;3.45;;;;;;;-143.49;100.00;65027.28;5094076;28;20063;-70
2023/07/11 04:49:53;;;;;;;11.65;4.05;;;;;;;-143.49;100.00;65027.28;5094377;28;20031;-70
2023/07/11 04:52:18;;;;;;;10.90;4.20;;;;;;;-143.49;100.00;65027.28;5076149;28;20020;-71
2023/07/11 04:54:44;;;;;;;9.63;3.92;;;;;;;-143.49;100.00;65027.28;5093854;28;20561;-70
2023/07/11 04:57:10;;;;;;;11.32;5.10;;;;;;;-143.49;100.00;65027.28;5093875;28;20039;-71
2023/07/11 04:59:35;;;;;;;10.75;4.65;;;;;;;-143.49;100.00;65027.28;5093899;28;20024;-71
2023/07/11 05:02:00;;;;;;;14.73;5.20;;;;;;;-143.49;100.00;65027.28;5093812;28;20024;-71
2023/07/11 05:04:26;;;;;;;10.82;5.88;;;;;;;-143.49;100.00;65027.28;5093840;28;20031;-70
2023/07/11 05:06:51;;;;;;;16.08;5.95;;;;;;;-143.49;100.00;65027.28;5075298;28;20051;-71
2023/07/11 05:09:17;;;;;;;11.45;5.93;;;;;;;-143.49;100.00;65027.28;5093822;28;20054;-70
2023/07/11 05:11:43;;;;;;;13.77;6.68;;;;;;;-143.49;100.00;65027.28;5093674;28;20460;-71
2023/07/11 05:14:08;;;;;;;15.95;6.50;;;;;;;-143.49;100.00;65027.28;5093668;28;20460;-70
2023/07/11 05:16:33;;;;;;;13.05;7.05;;;;;;;-143.49;100.00;65027.28;5075588;28;20490;-71
2023/07/11 05:18:59;;;;;;;13.70;7.45;;;;;;;-143.49;100.00;65027.28;5075847;28;20051;-71
2023/07/11 05:21:26;;;;;;;14.57;7.10;;;;;;;-143.49;100.00;65027.28;5093750;28;20058;-71
2023/07/11 05:23:51;;;;;;;15.23;6.85;;;;;;;-143.49;100.00;65027.28;5093444;28;20056;-71
2023/07/11 05:26:18;;;;;;;13.85;7.20;;;;;;;-143.49;100.00;65027.28;5093600;28;20525;-70
2023/07/11 05:28:44;;;;;;;11.98;7.35;;;;;;;-143.49;100.00;65027.28;5075122;28;20024;-70
2023/07/11 05:31:10;;;;;;;15.88;7.57;;;;;;;-143.49;100.00;65027.28;5093217;28;20410;-71
2023/07/11 05:33:36;;;;;;;14.55;7.35;;;;;;;-143.49;100.00;65027.28;5093429;28;20059;-71
2023/07/11 05:38:43;;;;;;;14.20;7.00;;;;;;;-143.49;100.00;65027.28;5093341;28;20032;-70
2023/07/11 05:41:08;;;;;;;12.75;7.28;;;;;;;-143.49;100.00;65027.28;5075352;28;20103;-71
2023/07/11 05:43:34;;;;;;;12.52;7.13;;;;;;;-143.49;100.00;65027.28;5075621;28;20479;-70
2023/07/11 05:45:59;;;;;;;13.57;7.28;;;;;;;-143.49;100.00;65027.28;5075061;28;20031;-70
2023/07/11 05:48:24;;;;;;;14.55;6.75;;;;;;;-143.49;100.00;65027.28;5092975;28;20491;-70
2023/07/11 05:51:07;;;;;;;15.20;7.22;;;;;;;-143.49;100.00;65027.28;5093083;28;20406;-71
2023/07/11 05:53:33;;;;;;;14.90;6.60;;;;;;;-143.49;100.00;65027.28;5080697;28;20059;-71
2023/07/11 05:55:58;;;;;;;12.77;6.43;;;;;;;-143.49;100.00;65027.28;5099675;28;20024;-71
2023/07/11 05:58:26;;;;;;;12.93;6.25;;;;;;;-143.49;100.00;65027.28;5100203;28;20047;-71
2023/07/11 06:00:52;;;;;;;17.13;5.93;;;;;;;-143.49;100.00;65027.28;5099818;28;20028;-71
2023/07/11 06:03:18;;;;;;;10.27;5.80;;;;;;;-143.49;100.00;65027.28;5099532;28;20430;-72
2023/07/11 06:05:44;;;;;;;11.40;5.70;;;;;;;-143.49;100.00;65027.28;5081380;28;20116;-69
2023/07/11 06:08:09;;;;;;;11.57;5.68;;;;;;;-143.49;100.00;65027.28;5099424;28;20082;-71
2023/07/11 06:10:34;;;;;;;10.10;5.30;;;;;;;-143.49;100.00;65027.28;5081996;28;20016;-70
2023/07/11 06:13:00;;;;;;;10.20;4.90;;;;;;;-143.49;100.00;65027.28;5100937;28;20031;-70
2023/07/11 06:15:25;;;;;;;10.63;4.90;;;;;;;-143.49;100.00;65027.28;5099943;28;20047;-69
2023/07/11 06:17:50;;;;;;;11.15;4.82;;;;;;;-143.49;100.00;65027.28;5099889;28;20020;-70
2023/07/11 06:20:16;;;;;;;10.55;5.03;;;;;;;-143.49;100.00;65027.28;5099772;28;20509;-70
2023/07/11 06:22:41;;;;;;;9.15;4.30;;;;;;;-143.49;100.00;65027.28;5099350;28;20089;-70
2023/07/11 06:25:07;;;;;;;7.05;4.45;;;;;;;-143.49;100.00;65027.28;5080029;28;20027;-70
2023/07/11 06:27:33;;;;;;;8.25;4.50;;;;;;;-143.49;100.00;65027.28;5099612;28;20024;-70
2023/07/11 06:29:58;;;;;;;17.30;4.65;;;;;;;-143.49;100.00;65027.28;5081297;28;20105;-70
2023/07/11 06:32:23;;;;;;;11.45;4.60;;;;;;;-143.49;100.00;65027.28;5081363;28;20448;-70
2023/07/11 06:34:49;;;;;;;9.68;4.40;;;;;;;-143.49;100.00;65027.28;5099062;28;20056;-71
2023/07/11 06:37:14;;;;;;;12.35;4.75;;;;;;;-143.49;100.00;65027.28;5098226;28;20027;-71
2023/07/11 06:39:39;;;;;;;12.57;4.68;;;;;;;-143.49;100.00;65027.28;5097835;28;20379;-70
2023/07/11 06:42:05;;;;;;;9.35;4.40;;;;;;;-143.49;100.00;65027.28;5078986;28;20143;-72
2023/07/11 06:44:31;;;;;;;14.15;4.80;;;;;;;-143.49;100.00;65027.28;5097051;28;20020;-71
2023/07/11 06:46:56;;;;;;;18.40;4.60;;;;;;;-143.49;100.00;65027.28;5081772;28;20024;-70
2023/07/11 06:49:22;;;;;;;10.55;4.03;;;;;;;-143.49;100.00;65027.28;5097111;28;20379;-71
2023/07/11 06:51:49;;;;;;;7.68;4.82;;;;;;;-143.49;100.00;65027.28;5097252;28;20099;-71
2023/07/11 06:54:15;;;;;;;8.75;4.57;;;;;;;-143.49;100.00;65027.28;5097311;28;20360;-70
2023/07/11 06:56:40;;;;;;;11.80;4.85;;;;;;;-143.49;100.00;65027.28;5079066;28;20020;-70
2023/07/11 06:59:06;;;;;;;10.38;4.68;;;;;;;-143.49;100.00;65027.28;5097505;28;20051;-70
2023/07/11 07:01:31;;;;;;;8.68;4.53;;;;;;;-143.49;100.00;65027.28;5099169;28;20445;-70
2023/07/11 07:03:57;;;;;;;12.38;4.82;;;;;;;-143.49;100.00;65027.28;5096952;28;20027;-70
2023/07/11 07:06:22;;;;;;;12.23;4.88;;;;;;;-143.49;100.00;65027.28;5077738;28;20046;-70
2023/07/11 07:08:48;;;;;;;9.90;4.30;;;;;;;-143.49;100.00;65027.28;5095720;28;20102;-70
2023/07/11 07:11:15;;;;;;;12.50;4.50;;;;;;;-143.49;100.00;65027.28;5077740;28;20020;-70
2023/07/11 07:13:40;;;;;;;11.15;4.28;;;;;;;-143.49;100.00;65027.28;5095826;28;20364;-70
2023/07/11 07:16:06;;;;;;;11.48;4.00;;;;;;;-143.49;100.00;65027.28;5096643;28;20078;-70
2023/07/11 07:18:35;;;;;;;11.70;3.58;;;;;;;-143.49;100.00;65027.28;5077714;28;20013;-69
2023/07/11 07:21:02;;;;;;;7.50;3.10;;;;;;;-143.49;100.00;65027.28;5095921;28;20024;-70
2023/07/11 07:23:28;;;;;;;7.45;3.38;;;;;;;-143.49;100.00;65027.28;5095986;28;20023;-70
2023/07/11 07:25:57;;;;;;;8.45;3.50;;;;;;;-143.49;100.00;65027.28;5077706;28;20020;-70
2023/07/11 07:28:23;;;;;;;7.90;3.15;;;;;;;-143.49;100.00;65027.28;5077490;28;20434;-70
2023/07/11 07:30:54;;;;;;;9.13;3.22;;;;;;;-143.49;100.00;65027.28;5077505;28;20077;-69
2023/07/11 07:33:23;;;;;;;7.95;3.10;;;;;;;-143.49;100.00;65027.28;5077154;28;20416;-70
2023/07/11 07:35:49;;;;;;;9.65;3.10;;;;;;;-143.49;100.00;65027.28;5077370;28;20035;-70
2023/07/11 07:38:15;;;;;;;9.38;3.10;;;;;;;-143.49;100.00;65027.28;5077348;28;20077;-71
2023/07/11 07:40:41;;;;;;;8.45;2.58;;;;;;;-143.49;100.00;65027.28;5094588;28;20020;-71
2023/07/11 07:43:06;;;;;;;7.05;2.70;;;;;;;-143.49;100.00;65027.28;5093313;28;20028;-70
2023/07/11 07:45:31;;;;;;;9.45;2.38;;;;;;;-143.49;100.00;65027.28;5094088;28;20030;-70
2023/07/11 07:47:57;;;;;;;12.98;2.60;;;;;;;-143.49;100.00;65027.28;5093132;28;20090;-71
2023/07/11 07:50:22;;;;;;;10.27;2.35;;;;;;;-143.49;100.00;65027.28;5094088;28;20035;-69
2023/07/11 07:52:47;;;;;;;13.27;2.75;;;;;;;-143.49;100.00;65027.28;5076969;28;20020;-70
2023/07/11 07:55:13;;;;;;;8.38;2.38;;;;;;;-143.49;100.00;65027.28;5095111;28;20028;-70
2023/07/11 07:57:38;;;;;;;6.30;2.28;;;;;;;-143.49;100.00;65027.28;5095004;28;20028;-70
2023/07/11 08:00:04;;;;;;;12.18;2.60;;;;;;;-143.49;100.00;65027.28;5095060;28;20061;-71
2023/07/11 08:02:35;;;;;;;11.30;2.30;;;;;;;-143.49;100.00;65027.28;5095138;28;20056;-70
2023/07/11 08:05:01;;;;;;;9.38;2.42;;;;;;;-143.49;100.00;65027.28;5095043;28;20088;-70
2023/07/11 08:07:27;;;;;;;5.82;2.17;;;;;;;-143.49;100.00;65027.28;5094502;28;20139;-70
2023/07/11 08:09:56;;;;;;;7.25;2.33;;;;;;;-143.49;100.00;65027.28;5093186;28;20028;-70
2023/07/11 08:12:21;;;;;;;6.03;2.33;;;;;;;-143.49;100.00;65027.28;5094536;28;20024;-71
2023/07/11 08:14:47;;;;;;;12.68;2.30;;;;;;;-143.49;100.00;65027.28;5094474;28;20027;-70
2023/07/11 08:17:13;;;;;;;11.40;2.45;;;;;;;-143.49;100.00;65027.28;5094690;28;20471;-70
2023/07/11 08:19:38;;;;;;;7.30;2.20;;;;;;;-143.49;100.00;65027.28;5094600;28;20119;-70
2023/07/11 08:22:04;;;;;;;6.95;2.42;;;;;;;-143.49;100.00;65027.28;5076661;28;20012;-69
2023/07/11 08:24:29;;;;;;;7.95;2.42;;;;;;;-143.49;100.00;65027.28;5075979;28;20036;-69
2023/07/11 08:26:54;;;;;;;5.90;2.40;;;;;;;-143.49;100.00;65027.28;5076799;28;20024;-70
2023/07/11 08:29:20;;;;;;;6.47;2.30;;;;;;;-143.49;100.00;65027.28;5094328;28;20024;-70
2023/07/11 08:31:45;;;;;;;5.68;2.25;;;;;;;-143.49;100.00;65027.28;5094693;28;20039;-70
2023/07/11 08:34:14;;;;;;;13.20;2.58;;;;;;;-143.49;100.00;65027.28;5076862;28;20036;-71
2023/07/11 08:36:39;;;;;;;12.50;2.63;;;;;;;-143.49;100.00;65027.28;5076130;28;20024;-71
2023/07/11 08:39:06;;;;;;;8.73;2.78;;;;;;;-143.49;100.00;65027.28;5094245;28;20027;-71
2023/07/11 08:41:46;;;;;;;6.18;2.15;;;;;;;-143.49;100.00;65027.28;5076276;28;20024;-71
2023/07/11 08:44:17;;;;;;;11.20;2.72;;;;;;;-143.49;100.00;65027.28;5075837;28;20071;-71
2023/07/11 08:46:48;;;;;;;9.00;2.55;;;;;;;-143.49;100.00;65027.28;5093486;28;20020;-71
2023/07/11 08:49:23;;;;;;;11.55;2.80;;;;;;;-143.49;100.00;65027.28;5093986;28;20016;-71
2023/07/11 08:51:53;;;;;;;11.40;2.45;;;;;;;-143.49;100.00;65027.28;5094206;28;20028;-70
2023/07/11 08:54:30;;;;;;;8.73;2.72;;;;;;;-143.49;100.00;65027.28;5096388;28;20486;-69
2023/07/11 08:56:59;;;;;;;11.85;2.40;;;;;;;-143.49;100.00;65027.28;5094119;28;20024;-71
2023/07/11 08:59:54;;;;;;;8.25;2.63;;;;;;;-143.49;100.00;65027.28;5093902;28;20463;-70
2023/07/11 09:02:26;;;;;;;6.60;2.63;;;;;;;-143.49;100.00;65027.28;5092667;28;20035;-71
2023/07/11 09:04:53;;;;;;;11.60;2.40;;;;;;;-143.49;100.00;65027.28;5093729;28;20413;-71
2023/07/11 09:07:31;;;;;;;7.07;2.30;;;;;;;-143.49;100.00;65027.28;5093619;28;20055;-70
2023/07/11 09:09:57;;;;;;;13.45;2.40;;;;;;;-143.49;100.00;65027.28;5075536;28;20123;-70
2023/07/11 09:12:44;;;;;;;10.13;2.47;;;;;;;-143.49;100.00;65027.28;5075474;28;20471;-70
2023/07/11 09:15:30;;;;;;;7.57;2.90;;;;;;;-143.49;100.00;65027.28;5093744;28;20490;-71
2023/07/11 09:18:06;;;;;;;9.77;2.40;;;;;;;-143.49;100.00;65027.28;5093689;28;20062;-70
2023/07/11 09:20:46;;;;;;;13.90;2.97;;;;;;;-143.49;100.00;65027.28;5093480;28;20364;-70
2023/07/11 09:23:40;;;;;;;8.50;2.38;;;;;;;-143.49;100.00;65027.28;5093468;28;20023;-70
2023/07/11 09:26:22;;;;;;;5.82;2.50;;;;;;;-143.49;100.00;65027.28;5093499;28;20027;-70
2023/07/11 09:28:48;;;;;;;9.20;2.40;;;;;;;-143.49;100.00;65027.28;5093186;28;20028;-71
2023/07/11 09:31:19;;;;;;;13.13;2.50;;;;;;;-143.49;100.00;65027.28;5075292;28;20077;-71
2023/07/11 09:33:55;;;;;;;8.85;2.20;;;;;;;-143.49;100.00;65027.28;5093416;28;20016;-70
2023/07/11 09:36:32;;;;;;;5.85;2.03;;;;;;;-143.49;100.00;65027.28;5093338;28;20034;-71
2023/07/11 09:39:06;;;;;;;9.27;2.50;;;;;;;-143.49;100.00;65027.28;5075435;28;20391;-70
2023/07/11 09:41:55;;;;;;;5.55;2.35;;;;;;;-143.49;100.00;65027.28;5075236;28;20020;-70
2023/07/11 09:44:21;;;;;;;6.03;2.35;;;;;;;-143.49;100.00;65027.28;5075093;28;20501;-70
2023/07/11 09:46:46;;;;;;;8.07;2.58;;;;;;;-143.49;100.00;65027.28;5093253;28;20023;-70
2023/07/11 09:49:30;;;;;;;11.50;2.50;;;;;;;-143.49;100.00;65027.28;5093082;28;20024;-70
2023/07/11 09:51:59;;;;;;;7.80;2.65;;;;;;;-143.49;100.00;65027.28;5074966;28;20031;-70
2023/07/11 09:54:27;;;;;;;14.10;2.92;;;;;;;-143.49;100.00;65027.28;5093165;28;20028;-69
2023/07/11 09:56:55;;;;;;;7.65;2.65;;;;;;;-143.49;100.00;65027.28;5093690;28;20035;-69
2023/07/11 09:59:21;;;;;;;7.70;2.60;;;;;;;-143.49;100.00;65027.28;5093137;28;20407;-71
2023/07/11 10:01:51;;;;;;;9.30;2.72;;;;;;;-143.49;100.00;65027.28;5093419;28;20024;-71
2023/07/11 10:04:21;;;;;;;16.05;2.67;;;;;;;-143.49;100.00;65027.28;5093300;28;20036;-70
2023/07/11 10:07:14;;;;;;;9.43;2.60;;;;;;;-143.49;100.00;65027.28;5093121;28;20020;-70
2023/07/11 10:09:50;;;;;;;9.27;2.35;;;;;;;-143.49;100.00;65027.28;5089639;28;20040;-71
2023/07/11 10:12:22;;;;;;;7.05;2.20;;;;;;;-143.49;100.00;65027.28;5075028;28;20016;-71
2023/07/11 10:14:53;;;;;;;8.57;2.70;;;;;;;-143.49;100.00;65027.28;5075232;28;20027;-70
2023/07/11 10:17:23;;;;;;;8.07;2.25;;;;;;;-143.49;100.00;65027.28;5092931;28;20099;-69
2023/07/11 10:19:59;;;;;;;9.82;2.30;;;;;;;-143.49;100.00;65027.28;5092806;28;20032;-70
2023/07/11 10:22:27;;;;;;;10.43;2.60;;;;;;;-143.49;100.00;65027.28;5093033;28;20103;-71
2023/07/11 10:25:02;;;;;;;6.13;2.60;;;;;;;-143.49;100.00;65027.28;5092878;28;20020;-71
2023/07/11 10:27:31;;;;;;;10.63;2.50;;;;;;;-143.49;100.00;65027.28;5092799;28;20030;-71
2023/07/11 10:29:59;;;;;;;13.27;2.67;;;;;;;-143.49;100.00;65027.28;5092671;28;20031;-71
2023/07/11 10:32:38;;;;;;;6.68;2.47;;;;;;;-143.49;100.00;65027.28;5092803;28;20089;-71
2023/07/11 10:35:11;;;;;;;7.97;2.35;;;;;;;-143.49;100.00;65027.28;5092981;28;20559;-71
2023/07/11 10:37:40;;;;;;;9.02;2.70;;;;;;;-143.49;100.00;65027.28;5092810;28;20028;-70
2023/07/11 10:40:20;;;;;;;6.68;2.45;;;;;;;-143.49;100.00;65027.28;5094630;28;20364;-70
2023/07/11 10:42:54;;;;;;;6.78;2.10;;;;;;;-143.49;100.00;65027.28;5096905;28;20115;-70
2023/07/11 10:45:35;;;;;;;5.38;2.17;;;;;;;-143.49;100.00;65027.28;5096521;28;20034;-71
2023/07/11 10:48:21;;;;;;;7.78;2.38;;;;;;;-143.49;100.00;65027.28;5096256;28;20028;-71
2023/07/11 10:50:52;;;;;;;7.75;2.20;;;;;;;-143.49;100.00;65027.28;5096299;28;20499;-71
2023/07/11 10:53:26;;;;;;;7.22;2.28;;;;;;;-143.49;100.00;65027.28;5096346;28;20034;-71
2023/07/11 10:56:05;;;;;;;6.68;2.00;;;;;;;-143.49;100.00;65027.28;5096313;28;20387;-71
2023/07/11 10:58:32;;;;;;;7.28;2.33;;;;;;;-143.49;100.00;65027.28;5077823;28;20070;-71
2023/07/11 11:01:29;;;;;;;7.43;2.10;;;;;;;-143.49;100.00;65027.28;5096052;28;20387;-72
2023/07/11 11:04:13;;;;;;;6.80;2.50;;;;;;;-143.49;100.00;65027.28;5077708;28;20058;-70
2023/07/11 11:06:59;;;;;;;11.48;2.20;;;;;;;-143.49;100.00;65027.28;5095873;28;20036;-72
2023/07/11 11:09:43;;;;;;;7.72;2.47;;;;;;;-143.49;100.00;65027.28;5077376;28;20031;-71
2023/07/11 11:12:23;;;;;;;8.32;2.45;;;;;;;-143.49;100.00;65027.28;5095824;28;20044;-71
2023/07/11 11:15:04;;;;;;;7.47;2.47;;;;;;;-143.49;100.00;65027.28;5096067;28;20028;-71